Terminal Aerodrome Forecast
Issued by NWS

Current Version | Previous Version | Text Only | Print | Product List | Glossary Off
Versions: 1 2 3 4 5 6 7 8 9 10 11 12 13 14 15 16 17 18 19 20 21 22 23 24 25 26 27 28 29 30

000
FTUS41 KRLX 191500 AAA
TAFCKB
TAF AMD
KCKB 191512Z 1915/2012 VRB04KT 5SM -RA BR SCT005 OVC060
      TEMPO 1915/1917 2SM RA BR BKN005 OVC060
     FM191700 16007KT 5SM SHRA BR OVC040
     FM192000 14005KT P6SM OVC040
     FM201000 VRB03KT 5SM BR BKN035=

USA.gov is the U.S. government's official web portal to all federal, state and local government web resources and services.